Country
Station

 

Weather  for  Grand Rapids, Kent County International Airport  -  United States    United States

  
21 °C (70 °F)
    
 
 

Current METAR for Grand Rapids, Kent County International Airport is :

KGRR 021153Z 25012KT 10SM FEW075 SCT250 21/13 A2990 RMK AO2 SLP122 T02060133 10206 20172 55003

 

This is a report for Grand Rapids, Kent County International Airport - United States.
 
The report was made 18 minutes ago, at 11:53 UTC .
The wind was blowing at a speed of 6.2 meters per second (13.8 miles per hour) from west/southwest (250°).
 
The temperature was 21 °C (70 °F), with a dew-point at 13 °C (55 °F).
The atmospheric pressure was 1013 hPa (29.90 inHg).
The relative humidity was 60.2%.
 
There were a few clouds at a height of 2286 meters (7500 feet) and scattered clouds at a height of 7620 meters (25000 feet).
 
The overall visibility was 16.1 kilometers (10.0 miles).
 

 
 
 
 

Country :   A   B   C   D   E   F   G   H   I   J   K   L   M   N   O   P   Q   R   S   T   U   V   W   Y   Z

 

Site Info  |  Disclaimer  |  Credits  |  Privacy
Contact us  |  Add to favorites
© 2013-2020 METARs - All rights reserved